sensor_id;sensor_type;location;lat;lon;timestamp;P1;durP1;ratioP1;P2;durP2;ratioP2
11267;SDS011;49397;47.474;9.416;2022-08-21T00:00:18;2.90;;;2.70;;
11267;SDS011;49397;47.474;9.416;2022-08-21T00:02:47;2.90;;;2.70;;
11267;SDS011;49397;47.474;9.416;2022-08-21T00:05:19;3.23;;;2.93;;
11267;SDS011;49397;47.474;9.416;2022-08-21T00:07:46;3.40;;;3.10;;
11267;SDS011;49397;47.474;9.416;2022-08-21T00:10:12;3.10;;;2.90;;
11267;SDS011;49397;47.474;9.416;2022-08-21T00:12:39;2.50;;;2.30;;
11267;SDS011;49397;47.474;9.416;2022-08-21T00:15:05;3.30;;;3.00;;
11267;SDS011;49397;47.474;9.416;2022-08-21T00:17:32;2.70;;;2.50;;
11267;SDS011;49397;47.474;9.416;2022-08-21T00:19:57;3.37;;;3.13;;
11267;SDS011;49397;47.474;9.416;2022-08-21T00:22:23;2.97;;;2.67;;
11267;SDS011;49397;47.474;9.416;2022-08-21T00:24:48;2.43;;;2.23;;
11267;SDS011;49397;47.474;9.416;2022-08-21T00:27:13;2.60;;;2.40;;
11267;SDS011;49397;47.474;9.416;2022-08-21T00:29:39;2.80;;;2.60;;
11267;SDS011;49397;47.474;9.416;2022-08-21T00:32:04;3.00;;;2.80;;
11267;SDS011;49397;47.474;9.416;2022-08-21T00:34:30;2.90;;;2.70;;
11267;SDS011;49397;47.474;9.416;2022-08-21T00:36:55;3.40;;;3.07;;
11267;SDS011;49397;47.474;9.416;2022-08-21T00:39:21;3.87;;;2.70;;
11267;SDS011;49397;47.474;9.416;2022-08-21T00:41:46;3.17;;;2.77;;
11267;SDS011;49397;47.474;9.416;2022-08-21T00:44:12;4.93;;;2.90;;
11267;SDS011;49397;47.474;9.416;2022-08-21T00:46:39;5.53;;;3.03;;
11267;SDS011;49397;47.474;9.416;2022-08-21T00:49:07;7.70;;;3.13;;
11267;SDS011;49397;47.474;9.416;2022-08-21T00:51:42;3.60;;;3.20;;
11267;SDS011;49397;47.474;9.416;2022-08-21T00:54:13;3.47;;;3.20;;
11267;SDS011;49397;47.474;9.416;2022-08-21T00:56:39;4.30;;;3.00;;
11267;SDS011;49397;47.474;9.416;2022-08-21T00:59:06;3.20;;;2.60;;
11267;SDS011;49397;47.474;9.416;2022-08-21T01:01:32;3.00;;;2.80;;
11267;SDS011;49397;47.474;9.416;2022-08-21T01:03:58;2.93;;;2.73;;
11267;SDS011;49397;47.474;9.416;2022-08-21T01:06:23;3.30;;;3.00;;
11267;SDS011;49397;47.474;9.416;2022-08-21T01:08:49;3.57;;;3.27;;
11267;SDS011;49397;47.474;9.416;2022-08-21T01:11:15;3.03;;;2.73;;
11267;SDS011;49397;47.474;9.416;2022-08-21T01:13:41;3.50;;;3.20;;
11267;SDS011;49397;47.474;9.416;2022-08-21T01:16:11;3.20;;;3.00;;
11267;SDS011;49397;47.474;9.416;2022-08-21T01:18:39;3.60;;;2.90;;
11267;SDS011;49397;47.474;9.416;2022-08-21T01:21:07;3.17;;;2.87;;
11267;SDS011;49397;47.474;9.416;2022-08-21T01:23:38;10.53;;;3.10;;
11267;SDS011;49397;47.474;9.416;2022-08-21T01:26:06;4.50;;;3.50;;
11267;SDS011;49397;47.474;9.416;2022-08-21T01:28:33;3.47;;;3.17;;
11267;SDS011;49397;47.474;9.416;2022-08-21T01:31:03;3.43;;;2.87;;
11267;SDS011;49397;47.474;9.416;2022-08-21T01:33:32;3.37;;;2.80;;
11267;SDS011;49397;47.474;9.416;2022-08-21T01:35:57;5.37;;;3.10;;
11267;SDS011;49397;47.474;9.416;2022-08-21T01:38:23;3.63;;;3.30;;
11267;SDS011;49397;47.474;9.416;2022-08-21T01:40:49;3.90;;;2.87;;
11267;SDS011;49397;47.474;9.416;2022-08-21T01:43:15;4.50;;;2.70;;
11267;SDS011;49397;47.474;9.416;2022-08-21T01:45:40;3.17;;;2.93;;
11267;SDS011;49397;47.474;9.416;2022-08-21T01:48:06;3.77;;;2.93;;
11267;SDS011;49397;47.474;9.416;2022-08-21T01:50:31;2.80;;;2.60;;
11267;SDS011;49397;47.474;9.416;2022-08-21T01:52:57;3.53;;;3.20;;
11267;SDS011;49397;47.474;9.416;2022-08-21T01:55:22;3.13;;;2.80;;
11267;SDS011;49397;47.474;9.416;2022-08-21T01:57:49;3.03;;;2.73;;
11267;SDS011;49397;47.474;9.416;2022-08-21T02:00:16;2.50;;;2.30;;
11267;SDS011;49397;47.474;9.416;2022-08-21T02:02:43;6.30;;;3.07;;
11267;SDS011;49397;47.474;9.416;2022-08-21T02:05:10;2.87;;;2.63;;
11267;SDS011;49397;47.474;9.416;2022-08-21T02:07:41;2.57;;;2.37;;
11267;SDS011;49397;47.474;9.416;2022-08-21T02:10:12;2.37;;;2.27;;
11267;SDS011;49397;47.474;9.416;2022-08-21T02:12:40;3.33;;;3.00;;
11267;SDS011;49397;47.474;9.416;2022-08-21T02:15:06;3.00;;;2.53;;
11267;SDS011;49397;47.474;9.416;2022-08-21T02:17:37;3.83;;;2.50;;
11267;SDS011;49397;47.474;9.416;2022-08-21T02:20:04;2.97;;;2.77;;
11267;SDS011;49397;47.474;9.416;2022-08-21T02:22:30;2.90;;;2.70;;
11267;SDS011;49397;47.474;9.416;2022-08-21T02:24:55;2.83;;;2.63;;
11267;SDS011;49397;47.474;9.416;2022-08-21T02:27:24;2.90;;;2.70;;
11267;SDS011;49397;47.474;9.416;2022-08-21T02:29:50;2.90;;;2.70;;
11267;SDS011;49397;47.474;9.416;2022-08-21T02:32:16;3.83;;;2.80;;
11267;SDS011;49397;47.474;9.416;2022-08-21T02:34:41;2.73;;;2.53;;
11267;SDS011;49397;47.474;9.416;2022-08-21T02:37:07;2.73;;;2.53;;
11267;SDS011;49397;47.474;9.416;2022-08-21T02:39:32;4.97;;;2.80;;
11267;SDS011;49397;47.474;9.416;2022-08-21T02:41:58;3.57;;;2.57;;
11267;SDS011;49397;47.474;9.416;2022-08-21T02:44:23;3.40;;;2.83;;
11267;SDS011;49397;47.474;9.416;2022-08-21T02:46:49;3.00;;;2.80;;
11267;SDS011;49397;47.474;9.416;2022-08-21T02:49:14;3.13;;;2.70;;
11267;SDS011;49397;47.474;9.416;2022-08-21T02:51:40;3.07;;;2.40;;
11267;SDS011;49397;47.474;9.416;2022-08-21T02:54:05;2.27;;;2.17;;
11267;SDS011;49397;47.474;9.416;2022-08-21T02:56:31;2.97;;;2.77;;
11267;SDS011;49397;47.474;9.416;2022-08-21T02:58:56;3.10;;;2.63;;
11267;SDS011;49397;47.474;9.416;2022-08-21T03:01:22;3.30;;;3.00;;
11267;SDS011;49397;47.474;9.416;2022-08-21T03:03:48;5.77;;;3.00;;
11267;SDS011;49397;47.474;9.416;2022-08-21T03:06:15;2.93;;;2.73;;
11267;SDS011;49397;47.474;9.416;2022-08-21T03:08:42;6.20;;;2.73;;
11267;SDS011;49397;47.474;9.416;2022-08-21T03:11:10;3.23;;;3.03;;
11267;SDS011;49397;47.474;9.416;2022-08-21T03:13:37;3.20;;;3.00;;
11267;SDS011;49397;47.474;9.416;2022-08-21T03:16:03;2.80;;;2.60;;
11267;SDS011;49397;47.474;9.416;2022-08-21T03:18:29;2.90;;;2.70;;
11267;SDS011;49397;47.474;9.416;2022-08-21T03:20:55;2.80;;;2.60;;
11267;SDS011;49397;47.474;9.416;2022-08-21T03:23:20;3.13;;;2.83;;
11267;SDS011;49397;47.474;9.416;2022-08-21T03:25:47;5.57;;;2.50;;
11267;SDS011;49397;47.474;9.416;2022-08-21T03:28:15;3.00;;;2.70;;
11267;SDS011;49397;47.474;9.416;2022-08-21T03:30:43;3.43;;;2.63;;
11267;SDS011;49397;47.474;9.416;2022-08-21T03:33:10;2.87;;;2.67;;
11267;SDS011;49397;47.474;9.416;2022-08-21T03:35:36;2.50;;;2.40;;
11267;SDS011;49397;47.474;9.416;2022-08-21T03:38:02;2.50;;;2.37;;
11267;SDS011;49397;47.474;9.416;2022-08-21T03:40:28;6.07;;;2.47;;
11267;SDS011;49397;47.474;9.416;2022-08-21T03:42:54;5.33;;;3.33;;
11267;SDS011;49397;47.474;9.416;2022-08-21T03:45:19;3.03;;;2.83;;
11267;SDS011;49397;47.474;9.416;2022-08-21T03:47:56;3.00;;;2.80;;
11267;SDS011;49397;47.474;9.416;2022-08-21T03:50:24;3.10;;;2.27;;
11267;SDS011;49397;47.474;9.416;2022-08-21T03:52:52;5.57;;;3.50;;
11267;SDS011;49397;47.474;9.416;2022-08-21T03:55:17;2.50;;;2.40;;
11267;SDS011;49397;47.474;9.416;2022-08-21T03:57:43;2.27;;;2.17;;
11267;SDS011;49397;47.474;9.416;2022-08-21T04:00:09;2.30;;;2.20;;
11267;SDS011;49397;47.474;9.416;2022-08-21T04:02:37;2.57;;;2.37;;
11267;SDS011;49397;47.474;9.416;2022-08-21T04:05:04;3.10;;;2.80;;
11267;SDS011;49397;47.474;9.416;2022-08-21T04:07:31;4.93;;;3.07;;
11267;SDS011;49397;47.474;9.416;2022-08-21T04:09:56;4.03;;;2.47;;
11267;SDS011;49397;47.474;9.416;2022-08-21T04:12:22;2.73;;;2.53;;
11267;SDS011;49397;47.474;9.416;2022-08-21T04:14:48;6.07;;;3.50;;
11267;SDS011;49397;47.474;9.416;2022-08-21T04:17:16;2.90;;;2.70;;
11267;SDS011;49397;47.474;9.416;2022-08-21T04:19:43;3.60;;;3.30;;
11267;SDS011;49397;47.474;9.416;2022-08-21T04:22:08;4.10;;;3.67;;
11267;SDS011;49397;47.474;9.416;2022-08-21T04:24:34;2.20;;;2.10;;
11267;SDS011;49397;47.474;9.416;2022-08-21T04:27:00;2.90;;;2.70;;
11267;SDS011;49397;47.474;9.416;2022-08-21T04:29:25;2.53;;;2.33;;
11267;SDS011;49397;47.474;9.416;2022-08-21T04:31:51;3.03;;;2.80;;
11267;SDS011;49397;47.474;9.416;2022-08-21T04:34:17;2.77;;;2.57;;
11267;SDS011;49397;47.474;9.416;2022-08-21T04:36:43;2.60;;;2.40;;
11267;SDS011;49397;47.474;9.416;2022-08-21T04:39:09;2.80;;;2.60;;
11267;SDS011;49397;47.474;9.416;2022-08-21T04:41:34;2.80;;;2.60;;
11267;SDS011;49397;47.474;9.416;2022-08-21T04:44:01;2.83;;;2.63;;
11267;SDS011;49397;47.474;9.416;2022-08-21T04:46:27;3.87;;;2.37;;
11267;SDS011;49397;47.474;9.416;2022-08-21T04:48:53;3.50;;;2.90;;
11267;SDS011;49397;47.474;9.416;2022-08-21T04:51:22;4.27;;;2.87;;
11267;SDS011;49397;47.474;9.416;2022-08-21T04:53:52;2.80;;;2.60;;
11267;SDS011;49397;47.474;9.416;2022-08-21T04:56:40;2.97;;;2.77;;
11267;SDS011;49397;47.474;9.416;2022-08-21T04:59:12;5.87;;;2.43;;
11267;SDS011;49397;47.474;9.416;2022-08-21T05:01:41;3.27;;;3.07;;
11267;SDS011;49397;47.474;9.416;2022-08-21T05:04:09;6.43;;;5.30;;
11267;SDS011;49397;47.474;9.416;2022-08-21T05:06:39;3.37;;;3.13;;
11267;SDS011;49397;47.474;9.416;2022-08-21T05:09:07;4.90;;;3.90;;
11267;SDS011;49397;47.474;9.416;2022-08-21T05:11:34;3.00;;;2.80;;
11267;SDS011;49397;47.474;9.416;2022-08-21T05:14:00;9.17;;;6.53;;
11267;SDS011;49397;47.474;9.416;2022-08-21T05:16:26;3.93;;;3.17;;
11267;SDS011;49397;47.474;9.416;2022-08-21T05:18:52;3.27;;;3.00;;
11267;SDS011;49397;47.474;9.416;2022-08-21T05:21:18;3.30;;;3.03;;
11267;SDS011;49397;47.474;9.416;2022-08-21T05:23:43;3.93;;;3.33;;
11267;SDS011;49397;47.474;9.416;2022-08-21T05:26:08;13.57;;;6.83;;
11267;SDS011;49397;47.474;9.416;2022-08-21T05:28:34;9.67;;;3.67;;
11267;SDS011;49397;47.474;9.416;2022-08-21T05:31:00;4.70;;;3.60;;
11267;SDS011;49397;47.474;9.416;2022-08-21T05:33:26;3.10;;;2.83;;
11267;SDS011;49397;47.474;9.416;2022-08-21T05:35:52;9.40;;;5.50;;
11267;SDS011;49397;47.474;9.416;2022-08-21T05:38:21;8.27;;;6.67;;
11267;SDS011;49397;47.474;9.416;2022-08-21T05:40:47;7.57;;;5.57;;
11267;SDS011;49397;47.474;9.416;2022-08-21T05:43:13;6.20;;;5.07;;
11267;SDS011;49397;47.474;9.416;2022-08-21T05:45:39;7.43;;;5.33;;
11267;SDS011;49397;47.474;9.416;2022-08-21T05:48:08;5.23;;;4.70;;
11267;SDS011;49397;47.474;9.416;2022-08-21T05:50:34;8.47;;;5.80;;
11267;SDS011;49397;47.474;9.416;2022-08-21T05:53:00;5.43;;;4.93;;
11267;SDS011;49397;47.474;9.416;2022-08-21T05:55:26;5.83;;;4.77;;
11267;SDS011;49397;47.474;9.416;2022-08-21T05:57:51;4.93;;;4.07;;
11267;SDS011;49397;47.474;9.416;2022-08-21T06:00:17;4.80;;;3.97;;
11267;SDS011;49397;47.474;9.416;2022-08-21T06:02:42;4.20;;;3.90;;
11267;SDS011;49397;47.474;9.416;2022-08-21T06:05:08;4.50;;;4.10;;
11267;SDS011;49397;47.474;9.416;2022-08-21T06:07:33;6.17;;;4.00;;
11267;SDS011;49397;47.474;9.416;2022-08-21T06:09:59;4.80;;;4.40;;
11267;SDS011;49397;47.474;9.416;2022-08-21T06:12:25;5.63;;;4.17;;
11267;SDS011;49397;47.474;9.416;2022-08-21T06:14:51;5.80;;;4.67;;
11267;SDS011;49397;47.474;9.416;2022-08-21T06:17:17;4.33;;;3.93;;
11267;SDS011;49397;47.474;9.416;2022-08-21T06:19:43;5.40;;;4.90;;
11267;SDS011;49397;47.474;9.416;2022-08-21T06:22:09;4.77;;;4.13;;
11267;SDS011;49397;47.474;9.416;2022-08-21T06:24:34;4.20;;;3.80;;
11267;SDS011;49397;47.474;9.416;2022-08-21T06:27:04;5.20;;;4.70;;
11267;SDS011;49397;47.474;9.416;2022-08-21T06:29:31;6.40;;;5.03;;
11267;SDS011;49397;47.474;9.416;2022-08-21T06:31:57;5.87;;;4.97;;
11267;SDS011;49397;47.474;9.416;2022-08-21T06:34:23;7.80;;;5.77;;
11267;SDS011;49397;47.474;9.416;2022-08-21T06:36:48;10.57;;;7.77;;
11267;SDS011;49397;47.474;9.416;2022-08-21T06:39:14;7.73;;;6.33;;
11267;SDS011;49397;47.474;9.416;2022-08-21T06:41:39;6.13;;;5.53;;
11267;SDS011;49397;47.474;9.416;2022-08-21T06:44:05;5.90;;;5.30;;
11267;SDS011;49397;47.474;9.416;2022-08-21T06:46:31;6.80;;;5.57;;
11267;SDS011;49397;47.474;9.416;2022-08-21T06:48:57;5.90;;;5.40;;
11267;SDS011;49397;47.474;9.416;2022-08-21T06:51:24;5.90;;;5.30;;
11267;SDS011;49397;47.474;9.416;2022-08-21T06:53:50;4.73;;;4.33;;
11267;SDS011;49397;47.474;9.416;2022-08-21T06:56:17;7.73;;;6.57;;
11267;SDS011;49397;47.474;9.416;2022-08-21T06:58:43;7.10;;;6.27;;
11267;SDS011;49397;47.474;9.416;2022-08-21T07:01:08;7.23;;;6.03;;
11267;SDS011;49397;47.474;9.416;2022-08-21T07:03:35;6.60;;;5.90;;
11267;SDS011;49397;47.474;9.416;2022-08-21T07:06:04;6.77;;;5.70;;
11267;SDS011;49397;47.474;9.416;2022-08-21T07:08:30;5.40;;;4.90;;
11267;SDS011;49397;47.474;9.416;2022-08-21T07:10:57;5.17;;;4.50;;
11267;SDS011;49397;47.474;9.416;2022-08-21T07:13:24;5.03;;;4.63;;
11267;SDS011;49397;47.474;9.416;2022-08-21T07:15:50;5.27;;;4.73;;
11267;SDS011;49397;47.474;9.416;2022-08-21T07:18:15;6.47;;;5.77;;
11267;SDS011;49397;47.474;9.416;2022-08-21T07:20:41;5.90;;;5.30;;
11267;SDS011;49397;47.474;9.416;2022-08-21T07:23:09;5.63;;;5.10;;
11267;SDS011;49397;47.474;9.416;2022-08-21T07:25:37;7.10;;;4.83;;
11267;SDS011;49397;47.474;9.416;2022-08-21T07:28:03;4.83;;;4.43;;
11267;SDS011;49397;47.474;9.416;2022-08-21T07:30:29;4.23;;;3.83;;
11267;SDS011;49397;47.474;9.416;2022-08-21T07:32:55;4.80;;;4.40;;
11267;SDS011;49397;47.474;9.416;2022-08-21T07:35:21;6.33;;;5.47;;
11267;SDS011;49397;47.474;9.416;2022-08-21T07:37:47;5.70;;;4.67;;
11267;SDS011;49397;47.474;9.416;2022-08-21T07:40:13;5.27;;;4.50;;
11267;SDS011;49397;47.474;9.416;2022-08-21T07:42:44;5.97;;;4.97;;
11267;SDS011;49397;47.474;9.416;2022-08-21T07:45:12;4.53;;;4.17;;
11267;SDS011;49397;47.474;9.416;2022-08-21T07:47:38;4.80;;;4.00;;
11267;SDS011;49397;47.474;9.416;2022-08-21T07:50:05;5.30;;;4.27;;
11267;SDS011;49397;47.474;9.416;2022-08-21T07:52:32;4.97;;;4.47;;
11267;SDS011;49397;47.474;9.416;2022-08-21T07:54:57;4.43;;;4.03;;
11267;SDS011;49397;47.474;9.416;2022-08-21T07:57:23;3.93;;;3.63;;
11267;SDS011;49397;47.474;9.416;2022-08-21T07:59:49;4.13;;;3.83;;
11267;SDS011;49397;47.474;9.416;2022-08-21T08:02:21;5.07;;;4.13;;
11267;SDS011;49397;47.474;9.416;2022-08-21T08:04:51;5.00;;;4.50;;
11267;SDS011;49397;47.474;9.416;2022-08-21T08:07:16;7.00;;;4.87;;
11267;SDS011;49397;47.474;9.416;2022-08-21T08:09:43;5.03;;;4.53;;
11267;SDS011;49397;47.474;9.416;2022-08-21T08:12:08;4.20;;;3.80;;
11267;SDS011;49397;47.474;9.416;2022-08-21T08:14:35;5.50;;;4.33;;
11267;SDS011;49397;47.474;9.416;2022-08-21T08:17:01;4.33;;;3.93;;
11267;SDS011;49397;47.474;9.416;2022-08-21T08:19:27;4.90;;;4.47;;
11267;SDS011;49397;47.474;9.416;2022-08-21T08:21:53;4.63;;;4.17;;
11267;SDS011;49397;47.474;9.416;2022-08-21T08:24:19;5.07;;;3.73;;
11267;SDS011;49397;47.474;9.416;2022-08-21T08:26:45;3.97;;;3.67;;
11267;SDS011;49397;47.474;9.416;2022-08-21T08:29:11;3.77;;;3.47;;
11267;SDS011;49397;47.474;9.416;2022-08-21T08:31:37;4.50;;;4.10;;
11267;SDS011;49397;47.474;9.416;2022-08-21T08:34:02;4.43;;;4.03;;
11267;SDS011;49397;47.474;9.416;2022-08-21T08:36:32;4.00;;;3.60;;
11267;SDS011;49397;47.474;9.416;2022-08-21T08:39:00;3.83;;;3.50;;
11267;SDS011;49397;47.474;9.416;2022-08-21T08:41:26;2.97;;;2.77;;
11267;SDS011;49397;47.474;9.416;2022-08-21T08:43:53;3.27;;;3.00;;
11267;SDS011;49397;47.474;9.416;2022-08-21T08:46:44;4.50;;;4.10;;
11267;SDS011;49397;47.474;9.416;2022-08-21T08:49:20;4.03;;;3.73;;
11267;SDS011;49397;47.474;9.416;2022-08-21T08:51:57;4.23;;;3.67;;
11267;SDS011;49397;47.474;9.416;2022-08-21T08:57:22;3.67;;;3.37;;
11267;SDS011;49397;47.474;9.416;2022-08-21T08:59:49;42.23;;;12.50;;
11267;SDS011;49397;47.474;9.416;2022-08-21T09:02:18;33.57;;;10.83;;
11267;SDS011;49397;47.474;9.416;2022-08-21T09:04:47;18.83;;;6.80;;
11267;SDS011;49397;47.474;9.416;2022-08-21T09:07:28;10.00;;;5.90;;
11267;SDS011;49397;47.474;9.416;2022-08-21T09:13:07;10.37;;;5.57;;
11267;SDS011;49397;47.474;9.416;2022-08-21T09:23:49;4.83;;;4.33;;
11267;SDS011;49397;47.474;9.416;2022-08-21T09:26:24;7.33;;;4.30;;
11267;SDS011;49397;47.474;9.416;2022-08-21T09:28:55;4.20;;;3.80;;
11267;SDS011;49397;47.474;9.416;2022-08-21T09:31:31;4.73;;;3.47;;
11267;SDS011;49397;47.474;9.416;2022-08-21T09:34:03;6.50;;;4.10;;
11267;SDS011;49397;47.474;9.416;2022-08-21T09:36:35;4.40;;;4.00;;
11267;SDS011;49397;47.474;9.416;2022-08-21T09:39:05;3.97;;;3.67;;
11267;SDS011;49397;47.474;9.416;2022-08-21T09:41:33;3.73;;;3.43;;
11267;SDS011;49397;47.474;9.416;2022-08-21T09:44:01;4.40;;;3.87;;
11267;SDS011;49397;47.474;9.416;2022-08-21T09:46:28;4.03;;;3.67;;
11267;SDS011;49397;47.474;9.416;2022-08-21T09:48:55;5.27;;;4.20;;
11267;SDS011;49397;47.474;9.416;2022-08-21T09:53:54;14.03;;;7.87;;
11267;SDS011;49397;47.474;9.416;2022-08-21T09:56:39;9.80;;;5.10;;
11267;SDS011;49397;47.474;9.416;2022-08-21T09:59:35;11.90;;;6.50;;
11267;SDS011;49397;47.474;9.416;2022-08-21T10:02:14;7.97;;;5.43;;
11267;SDS011;49397;47.474;9.416;2022-08-21T10:05:30;3.53;;;3.33;;
11267;SDS011;49397;47.474;9.416;2022-08-21T10:07:45;3.70;;;3.40;;
11267;SDS011;49397;47.474;9.416;2022-08-21T10:10:18;4.80;;;4.13;;
11267;SDS011;49397;47.474;9.416;2022-08-21T10:24:37;2.60;;;2.40;;
11267;SDS011;49397;47.474;9.416;2022-08-21T10:30:08;2.83;;;2.60;;
11267;SDS011;49397;47.474;9.416;2022-08-21T10:35:13;2.60;;;2.40;;
11267;SDS011;49397;47.474;9.416;2022-08-21T10:48:47;2.80;;;2.60;;
11267;SDS011;49397;47.474;9.416;2022-08-21T10:59:47;4.57;;;2.40;;
11267;SDS011;49397;47.474;9.416;2022-08-21T11:02:19;2.10;;;2.00;;
11267;SDS011;49397;47.474;9.416;2022-08-21T11:07:30;2.80;;;1.90;;
11267;SDS011;49397;47.474;9.416;2022-08-21T11:10:32;3.00;;;1.83;;
11267;SDS011;49397;47.474;9.416;2022-08-21T11:13:11;1.93;;;1.73;;
11267;SDS011;49397;47.474;9.416;2022-08-21T11:15:43;3.73;;;1.97;;
11267;SDS011;49397;47.474;9.416;2022-08-21T11:18:24;2.43;;;2.20;;
11267;SDS011;49397;47.474;9.416;2022-08-21T11:21:02;1.93;;;1.83;;
11267;SDS011;49397;47.474;9.416;2022-08-21T11:23:31;2.40;;;2.20;;
11267;SDS011;49397;47.474;9.416;2022-08-21T11:26:05;2.03;;;1.90;;
11267;SDS011;49397;47.474;9.416;2022-08-21T11:28:40;3.87;;;2.00;;
11267;SDS011;49397;47.474;9.416;2022-08-21T11:43:03;6.63;;;2.97;;
11267;SDS011;49397;47.474;9.416;2022-08-21T11:45:32;7.37;;;3.23;;
11267;SDS011;49397;47.474;9.416;2022-08-21T11:48:06;2.63;;;2.30;;
11267;SDS011;49397;47.474;9.416;2022-08-21T11:50:38;2.00;;;1.80;;
11267;SDS011;49397;47.474;9.416;2022-08-21T11:56:04;3.27;;;2.20;;
11267;SDS011;49397;47.474;9.416;2022-08-21T11:58:39;2.70;;;1.90;;
11267;SDS011;49397;47.474;9.416;2022-08-21T12:01:17;3.63;;;1.80;;
11267;SDS011;49397;47.474;9.416;2022-08-21T12:03:56;2.57;;;1.93;;
11267;SDS011;49397;47.474;9.416;2022-08-21T12:06:38;3.03;;;1.53;;
11267;SDS011;49397;47.474;9.416;2022-08-21T12:09:06;3.60;;;1.90;;
11267;SDS011;49397;47.474;9.416;2022-08-21T12:11:51;1.83;;;1.73;;
11267;SDS011;49397;47.474;9.416;2022-08-21T12:14:37;1.57;;;1.47;;
11267;SDS011;49397;47.474;9.416;2022-08-21T12:17:05;1.80;;;1.70;;
11267;SDS011;49397;47.474;9.416;2022-08-21T12:19:33;1.60;;;1.50;;
11267;SDS011;49397;47.474;9.416;2022-08-21T12:29:47;1.70;;;1.60;;
11267;SDS011;49397;47.474;9.416;2022-08-21T12:34:42;2.13;;;1.70;;
11267;SDS011;49397;47.474;9.416;2022-08-21T12:39:43;1.53;;;1.53;;
11267;SDS011;49397;47.474;9.416;2022-08-21T12:45:12;3.53;;;1.67;;
11267;SDS011;49397;47.474;9.416;2022-08-21T12:47:47;1.60;;;1.50;;
11267;SDS011;49397;47.474;9.416;2022-08-21T12:50:20;2.67;;;1.50;;
11267;SDS011;49397;47.474;9.416;2022-08-21T12:52:57;3.03;;;1.47;;
11267;SDS011;49397;47.474;9.416;2022-08-21T12:55:29;1.70;;;1.60;;
11267;SDS011;49397;47.474;9.416;2022-08-21T12:57:56;1.70;;;1.60;;
11267;SDS011;49397;47.474;9.416;2022-08-21T13:00:23;1.90;;;1.80;;
11267;SDS011;49397;47.474;9.416;2022-08-21T13:02:51;1.40;;;1.30;;
11267;SDS011;49397;47.474;9.416;2022-08-21T13:05:27;1.67;;;1.57;;
11267;SDS011;49397;47.474;9.416;2022-08-21T13:07:56;3.27;;;1.40;;
11267;SDS011;49397;47.474;9.416;2022-08-21T13:10:28;1.40;;;1.30;;
11267;SDS011;49397;47.474;9.416;2022-08-21T13:12:58;1.80;;;1.57;;
11267;SDS011;49397;47.474;9.416;2022-08-21T13:15:29;1.83;;;1.73;;
11267;SDS011;49397;47.474;9.416;2022-08-21T13:17:56;1.73;;;1.63;;
11267;SDS011;49397;47.474;9.416;2022-08-21T13:20:31;2.00;;;1.40;;
11267;SDS011;49397;47.474;9.416;2022-08-21T13:23:03;1.30;;;1.30;;
11267;SDS011;49397;47.474;9.416;2022-08-21T13:25:40;1.50;;;1.40;;
11267;SDS011;49397;47.474;9.416;2022-08-21T13:28:10;1.83;;;1.73;;
11267;SDS011;49397;47.474;9.416;2022-08-21T13:30:39;1.57;;;1.53;;
11267;SDS011;49397;47.474;9.416;2022-08-21T13:33:09;2.47;;;1.87;;
11267;SDS011;49397;47.474;9.416;2022-08-21T13:35:48;1.47;;;1.40;;
11267;SDS011;49397;47.474;9.416;2022-08-21T13:38:15;1.40;;;1.30;;
11267;SDS011;49397;47.474;9.416;2022-08-21T13:40:44;9.63;;;1.70;;
11267;SDS011;49397;47.474;9.416;2022-08-21T13:43:16;2.33;;;2.00;;
11267;SDS011;49397;47.474;9.416;2022-08-21T13:45:47;1.57;;;1.47;;
11267;SDS011;49397;47.474;9.416;2022-08-21T13:48:14;8.77;;;3.93;;
11267;SDS011;49397;47.474;9.416;2022-08-21T13:50:41;6.03;;;3.47;;
11267;SDS011;49397;47.474;9.416;2022-08-21T13:53:21;10.37;;;4.60;;
11267;SDS011;49397;47.474;9.416;2022-08-21T13:55:56;1.77;;;1.67;;
11267;SDS011;49397;47.474;9.416;2022-08-21T13:58:27;6.93;;;3.03;;
11267;SDS011;49397;47.474;9.416;2022-08-21T14:00:56;4.93;;;2.67;;
11267;SDS011;49397;47.474;9.416;2022-08-21T14:06:01;1.37;;;1.37;;
11267;SDS011;49397;47.474;9.416;2022-08-21T14:11:00;1.43;;;1.30;;
11267;SDS011;49397;47.474;9.416;2022-08-21T14:13:40;1.60;;;1.50;;
11267;SDS011;49397;47.474;9.416;2022-08-21T14:16:17;3.67;;;1.60;;
11267;SDS011;49397;47.474;9.416;2022-08-21T14:21:22;1.37;;;1.37;;
11267;SDS011;49397;47.474;9.416;2022-08-21T14:24:03;1.67;;;1.57;;
11267;SDS011;49397;47.474;9.416;2022-08-21T14:26:36;2.20;;;1.60;;
11267;SDS011;49397;47.474;9.416;2022-08-21T14:29:09;1.60;;;1.50;;
11267;SDS011;49397;47.474;9.416;2022-08-21T14:31:37;1.50;;;1.40;;
11267;SDS011;49397;47.474;9.416;2022-08-21T14:34:02;3.00;;;1.50;;
11267;SDS011;49397;47.474;9.416;2022-08-21T14:36:28;1.70;;;1.50;;
11267;SDS011;49397;47.474;9.416;2022-08-21T14:38:53;1.37;;;1.30;;
11267;SDS011;49397;47.474;9.416;2022-08-21T14:41:21;1.53;;;1.43;;
11267;SDS011;49397;47.474;9.416;2022-08-21T14:43:49;3.27;;;1.50;;
11267;SDS011;49397;47.474;9.416;2022-08-21T14:46:25;1.20;;;1.20;;
11267;SDS011;49397;47.474;9.416;2022-08-21T14:48:53;1.60;;;1.50;;
11267;SDS011;49397;47.474;9.416;2022-08-21T14:51:18;1.47;;;1.37;;
11267;SDS011;49397;47.474;9.416;2022-08-21T14:53:44;1.27;;;1.27;;
11267;SDS011;49397;47.474;9.416;2022-08-21T14:56:10;1.40;;;1.40;;
11267;SDS011;49397;47.474;9.416;2022-08-21T14:58:40;1.33;;;1.30;;
11267;SDS011;49397;47.474;9.416;2022-08-21T15:01:09;1.30;;;1.30;;
11267;SDS011;49397;47.474;9.416;2022-08-21T15:03:38;5.10;;;1.60;;
11267;SDS011;49397;47.474;9.416;2022-08-21T15:06:04;1.60;;;1.50;;
11267;SDS011;49397;47.474;9.416;2022-08-21T15:08:31;1.60;;;1.50;;
11267;SDS011;49397;47.474;9.416;2022-08-21T15:10:57;1.70;;;1.60;;
11267;SDS011;49397;47.474;9.416;2022-08-21T15:13:24;3.90;;;1.80;;
11267;SDS011;49397;47.474;9.416;2022-08-21T15:15:50;1.70;;;1.60;;
11267;SDS011;49397;47.474;9.416;2022-08-21T15:18:21;1.53;;;1.47;;
11267;SDS011;49397;47.474;9.416;2022-08-21T15:20:48;1.70;;;1.60;;
11267;SDS011;49397;47.474;9.416;2022-08-21T15:23:14;1.43;;;1.43;;
11267;SDS011;49397;47.474;9.416;2022-08-21T15:25:44;1.47;;;1.33;;
11267;SDS011;49397;47.474;9.416;2022-08-21T15:28:11;1.93;;;1.73;;
11267;SDS011;49397;47.474;9.416;2022-08-21T15:30:39;2.83;;;1.50;;
11267;SDS011;49397;47.474;9.416;2022-08-21T15:33:06;1.67;;;1.57;;
11267;SDS011;49397;47.474;9.416;2022-08-21T15:35:32;1.60;;;1.50;;
11267;SDS011;49397;47.474;9.416;2022-08-21T15:37:58;1.67;;;1.57;;
11267;SDS011;49397;47.474;9.416;2022-08-21T15:40:23;1.87;;;1.50;;
11267;SDS011;49397;47.474;9.416;2022-08-21T15:42:50;1.47;;;1.37;;
11267;SDS011;49397;47.474;9.416;2022-08-21T15:45:20;1.70;;;1.60;;
11267;SDS011;49397;47.474;9.416;2022-08-21T15:47:46;2.77;;;1.70;;
11267;SDS011;49397;47.474;9.416;2022-08-21T15:50:14;1.60;;;1.50;;
11267;SDS011;49397;47.474;9.416;2022-08-21T15:52:40;1.60;;;1.50;;
11267;SDS011;49397;47.474;9.416;2022-08-21T15:55:05;1.70;;;1.60;;
11267;SDS011;49397;47.474;9.416;2022-08-21T15:57:32;1.70;;;1.60;;
11267;SDS011;49397;47.474;9.416;2022-08-21T16:00:03;1.80;;;1.70;;
11267;SDS011;49397;47.474;9.416;2022-08-21T16:02:36;1.60;;;1.60;;
11267;SDS011;49397;47.474;9.416;2022-08-21T16:05:02;1.70;;;1.60;;
11267;SDS011;49397;47.474;9.416;2022-08-21T16:07:28;1.60;;;1.50;;
11267;SDS011;49397;47.474;9.416;2022-08-21T16:09:53;2.00;;;1.90;;
11267;SDS011;49397;47.474;9.416;2022-08-21T16:12:20;1.60;;;1.60;;
11267;SDS011;49397;47.474;9.416;2022-08-21T16:14:50;1.67;;;1.57;;
11267;SDS011;49397;47.474;9.416;2022-08-21T16:17:17;1.70;;;1.60;;
11267;SDS011;49397;47.474;9.416;2022-08-21T16:19:43;1.60;;;1.50;;
11267;SDS011;49397;47.474;9.416;2022-08-21T16:22:09;1.97;;;1.87;;
11267;SDS011;49397;47.474;9.416;2022-08-21T16:24:35;2.00;;;1.90;;
11267;SDS011;49397;47.474;9.416;2022-08-21T16:27:01;1.73;;;1.63;;
11267;SDS011;49397;47.474;9.416;2022-08-21T16:29:28;1.57;;;1.50;;